Albatros — DITX — position and weather

sailwx.info

Track history (hours):
 
Tides and Currents Weather Stations Pressure Air Temp Water Temp Dewpoint Dewpoint Depression Visibility Wind Speed Wind Dir Waves Ship Positions

Albatros

Last reported at 2015-Mar-27 13:33 UTC. Time now 2015-Mar-28 00:37 UTC.
Position N 54°32' E 013°08'.

Length 16 m.

MMSI: 211226200.

Date/timePositionNaut miles runAvg speedWind from/ knotsBaromVisibWave heightAir tempDewpointWater temp
2015-Mar-27 13:33N 54°32' E 013°08'6 6.3
2015-Mar-27 12:33N 54°38' E 013°12'4 3.7
2015-Mar-27 11:33N 54°42' E 013°13'1 1.1
2015-Mar-27 10:33N 54°42' E 013°11'0 0.2
2015-Mar-27 09:33N 54°42' E 013°10'0 0.1
2015-Mar-27 08:33N 54°41' E 013°10'3 3.3
2015-Mar-27 07:33N 54°38' E 013°10'6 6.0
2015-Mar-27 06:33N 54°32' E 013°08'2 0.1
2015-Mar-26 14:31N 54°31' E 013°10'4 3.6
2015-Mar-26 13:33N 54°34' E 013°10'7 6.7
2015-Mar-26 12:33N 54°41' E 013°12'1 0.3
2015-Mar-26 10:13N 54°42' E 013°12'0 0.4
2015-Mar-26 09:33N 54°42' E 013°12'1 0.9
2015-Mar-26 08:33N 54°41' E 013°10'3 2.6
2015-Mar-26 07:33N 54°39' E 013°11'6 5.9
2015-Mar-26 06:33N 54°33' E 013°08'3 0.2
2015-Mar-25 14:12N 54°31' E 013°10'2 3.9
2015-Mar-25 13:33N 54°33' E 013°09'7 6.6
2015-Mar-25 12:33N 54°40' E 013°10'2 1.7
2015-Mar-25 11:33N 54°41' E 013°10'0 0.1
2015-Mar-25 10:33N 54°42' E 013°10'0 0.0
2015-Mar-25 09:33N 54°42' E 013°11'0 0.1
2015-Mar-25 08:33N 54°41' E 013°10'2 2.1
2015-Mar-25 07:33N 54°39' E 013°10'6 6.2
2015-Mar-25 06:33N 54°33' E 013°09'  
2015-Mar-22 14:33N 54°31' E 013°10'3 2.5
2015-Mar-22 13:33N 54°33' E 013°09'6 6.0
2015-Mar-22 12:33N 54°39' E 013°12'3 2.5
2015-Mar-22 11:29N 54°42' E 013°12'0 0.2
2015-Mar-22 10:24N 54°42' E 013°13'0 0.3
2015-Mar-22 09:33N 54°42' E 013°12'1 1.2
2015-Mar-22 08:33N 54°41' E 013°10'3 2.7
2015-Mar-22 07:33N 54°39' E 013°11'6 5.8
2015-Mar-22 06:33N 54°33' E 013°08'3 0.2
2015-Mar-21 14:08N 54°31' E 013°10'2 4.3
2015-Mar-21 13:33N 54°33' E 013°09'7 7.6
2015-Mar-21 12:33N 54°40' E 013°12'  
Track history (hours):
 
Tides and Currents Weather Stations Pressure Air Temp Water Temp Dewpoint Dewpoint Depression Visibility Wind Speed Wind Dir Waves Ship Positions

Albatros

Last reported at 2015-Mar-27 13:33 UTC. Time now 2015-Mar-28 00:37 UTC.
Position N 54°32' E 013°08'.

Length 16 m.

MMSI: 211226200.

Date/timePositionNaut miles runAvg speedWind from/ knotsBaromVisibWave heightAir tempDewpointWater temp
2015-Mar-27 13:33N 54°32' E 013°08'6 6.3
2015-Mar-27 12:33N 54°38' E 013°12'4 3.7
2015-Mar-27 11:33N 54°42' E 013°13'1 1.1
2015-Mar-27 10:33N 54°42' E 013°11'0 0.2
2015-Mar-27 09:33N 54°42' E 013°10'0 0.1
2015-Mar-27 08:33N 54°41' E 013°10'3 3.3
2015-Mar-27 07:33N 54°38' E 013°10'6 6.0
2015-Mar-27 06:33N 54°32' E 013°08'2 0.1
2015-Mar-26 14:31N 54°31' E 013°10'4 3.6
2015-Mar-26 13:33N 54°34' E 013°10'7 6.7
2015-Mar-26 12:33N 54°41' E 013°12'1 0.3
2015-Mar-26 10:13N 54°42' E 013°12'0 0.4
2015-Mar-26 09:33N 54°42' E 013°12'1 0.9
2015-Mar-26 08:33N 54°41' E 013°10'3 2.6
2015-Mar-26 07:33N 54°39' E 013°11'6 5.9
2015-Mar-26 06:33N 54°33' E 013°08'3 0.2
2015-Mar-25 14:12N 54°31' E 013°10'2 3.9
2015-Mar-25 13:33N 54°33' E 013°09'7 6.6
2015-Mar-25 12:33N 54°40' E 013°10'2 1.7
2015-Mar-25 11:33N 54°41' E 013°10'0 0.1
2015-Mar-25 10:33N 54°42' E 013°10'0 0.0
2015-Mar-25 09:33N 54°42' E 013°11'0 0.1
2015-Mar-25 08:33N 54°41' E 013°10'2 2.1
2015-Mar-25 07:33N 54°39' E 013°10'6 6.2
2015-Mar-25 06:33N 54°33' E 013°09'  
2015-Mar-22 14:33N 54°31' E 013°10'3 2.5
2015-Mar-22 13:33N 54°33' E 013°09'6 6.0
2015-Mar-22 12:33N 54°39' E 013°12'3 2.5
2015-Mar-22 11:29N 54°42' E 013°12'0 0.2
2015-Mar-22 10:24N 54°42' E 013°13'0 0.3
2015-Mar-22 09:33N 54°42' E 013°12'1 1.2
2015-Mar-22 08:33N 54°41' E 013°10'3 2.7
2015-Mar-22 07:33N 54°39' E 013°11'6 5.8
2015-Mar-22 06:33N 54°33' E 013°08'3 0.2
2015-Mar-21 14:08N 54°31' E 013°10'2 4.3
2015-Mar-21 13:33N 54°33' E 013°09'7 7.6
2015-Mar-21 12:33N 54°40' E 013°12'  

Dump ship's entire track history